Time;durP1;ratioP1;P1;durP2;ratioP2;P2;SDS_P1;SDS_P2;PMS_P1;PMS_P2;Temp;Humidity;BMP_temperature;BMP_pressure;BME280_temperature;BME280_humidity;BME280_pressure;Samples;Min_cycle;Max_cycle;Signal;HPM_P1;HPM_P2
2024/02/05 00:00:56;;;;;;;;;4.75;4.75;;;;;;;;5070661;28;9460;-79
2024/02/05 00:03:23;;;;;;;;;5.75;5.25;;;;;;;;5068874;28;9545;-79
2024/02/05 00:05:55;;;;;;;;;3.75;3.25;;;;;;;;5073388;28;9425;-79
2024/02/05 00:08:23;;;;;;;;;5.25;2.00;;;;;;;;5067214;28;9688;-79
2024/02/05 00:10:50;;;;;;;;;5.67;4.00;;;;;;;;5072968;28;9568;-79
2024/02/05 00:13:19;;;;;;;;;1.75;1.75;;;;;;;;5071555;28;9429;-79
2024/02/05 00:15:47;;;;;;;;;5.50;4.00;;;;;;;;5064222;28;9529;-80
2024/02/05 00:18:15;;;;;;;;;6.00;3.00;;;;;;;;5064705;28;9396;-80
2024/02/05 00:20:43;;;;;;;;;4.25;3.50;;;;;;;;5062406;28;9514;-80
2024/02/05 00:23:10;;;;;;;;;4.00;4.00;;;;;;;;5068420;28;9402;-80
2024/02/05 00:25:37;;;;;;;;;5.00;3.33;;;;;;;;5070159;28;10289;-79
2024/02/05 00:28:05;;;;;;;;;2.00;2.00;;;;;;;;5069676;28;9480;-78
2024/02/05 00:30:33;;;;;;;;;4.00;4.00;;;;;;;;5071024;28;9306;-79
2024/02/05 00:33:01;;;;;;;;;1.25;1.00;;;;;;;;5069433;28;9564;-79
2024/02/05 00:35:28;;;;;;;;;3.50;3.00;;;;;;;;5071673;28;9474;-80
2024/02/05 00:37:55;;;;;;;;;5.00;2.25;;;;;;;;5069923;28;9571;-80
2024/02/05 00:40:23;;;;;;;;;2.25;2.25;;;;;;;;5071243;28;9572;-80
2024/02/05 00:42:50;;;;;;;;;3.00;3.00;;;;;;;;5071442;28;9471;-80
2024/02/05 00:45:18;;;;;;;;;9.50;2.75;;;;;;;;5070675;28;9418;-80
2024/02/05 00:47:46;;;;;;;;;4.00;2.75;;;;;;;;5070905;28;9548;-80
2024/02/05 00:50:14;;;;;;;;;4.50;3.50;;;;;;;;5069098;28;9565;-79
2024/02/05 00:52:41;;;;;;;;;6.25;4.50;;;;;;;;5069434;28;9565;-79
2024/02/05 00:55:09;;;;;;;;;4.00;4.00;;;;;;;;5070558;28;9656;-80
2024/02/05 00:57:36;;;;;;;;;6.00;2.50;;;;;;;;5069267;28;9549;-80
2024/02/05 01:00:07;;;;;;;;;4.00;3.25;;;;;;;;5068472;28;9630;-79
2024/02/05 01:02:34;;;;;;;;;5.25;3.50;;;;;;;;5059682;28;9689;-80
2024/02/05 01:05:03;;;;;;;;;2.75;2.75;;;;;;;;5070308;28;9701;-80
2024/02/05 01:07:31;;;;;;;;;3.25;1.50;;;;;;;;5072142;28;9833;-80
2024/02/05 01:09:58;;;;;;;;;3.00;2.50;;;;;;;;5070510;28;9702;-79
2024/02/05 01:12:26;;;;;;;;;4.00;2.75;;;;;;;;5074645;28;9656;-80
2024/02/05 01:14:53;;;;;;;;;5.50;4.50;;;;;;;;5071436;28;9517;-79
2024/02/05 01:17:20;;;;;;;;;2.75;1.00;;;;;;;;5073602;28;9608;-79
2024/02/05 01:19:48;;;;;;;;;3.00;3.00;;;;;;;;5063877;28;9405;-76
2024/02/05 01:22:16;;;;;;;;;3.50;3.50;;;;;;;;5082658;28;9768;-78
2024/02/05 01:24:44;;;;;;;;;2.50;2.50;;;;;;;;5062060;28;9619;-79
2024/02/05 01:27:11;;;;;;;;;4.50;4.50;;;;;;;;5068117;28;9778;-80
2024/02/05 01:29:38;;;;;;;;;4.50;4.50;;;;;;;;5060767;28;9690;-80
2024/02/05 01:32:06;;;;;;;;;4.00;2.75;;;;;;;;5061911;28;10527;-81
2024/02/05 01:34:33;;;;;;;;;5.75;4.00;;;;;;;;5069840;28;9877;-80
2024/02/05 01:37:01;;;;;;;;;3.25;3.00;;;;;;;;5069960;28;9700;-80
2024/02/05 01:39:29;;;;;;;;;3.00;3.00;;;;;;;;5055220;28;9618;-79
2024/02/05 01:41:56;;;;;;;;;3.25;3.25;;;;;;;;5063120;28;9731;-80
2024/02/05 01:44:24;;;;;;;;;3.00;3.00;;;;;;;;5068248;28;9784;-78
2024/02/05 01:46:52;;;;;;;;;3.00;3.00;;;;;;;;5061580;28;9653;-80
2024/02/05 01:49:22;;;;;;;;;3.75;3.00;;;;;;;;5070194;28;9660;-80
2024/02/05 01:51:52;;;;;;;;;6.25;2.00;;;;;;;;5071417;28;9625;-79
2024/02/05 01:54:21;;;;;;;;;5.00;2.00;;;;;;;;5071893;28;10497;-81
2024/02/05 01:56:51;;;;;;;;;4.75;4.00;;;;;;;;5066036;28;9533;-80
2024/02/05 01:59:19;;;;;;;;;4.25;3.00;;;;;;;;5070042;28;9738;-80
2024/02/05 02:01:46;;;;;;;;;8.25;4.25;;;;;;;;5058083;28;10339;-79
2024/02/05 02:04:13;;;;;;;;;5.50;2.50;;;;;;;;5060331;28;9736;-80
2024/02/05 02:06:42;;;;;;;;;2.00;2.00;;;;;;;;5063925;28;9548;-80
2024/02/05 02:09:13;;;;;;;;;4.00;2.25;;;;;;;;5063509;28;9715;-80
2024/02/05 02:11:41;;;;;;;;;4.00;4.00;;;;;;;;5069239;28;10561;-80
2024/02/05 02:14:10;;;;;;;;;4.00;4.00;;;;;;;;5058487;28;9613;-80
2024/02/05 02:16:38;;;;;;;;;3.00;2.75;;;;;;;;5066170;28;9806;-80
2024/02/05 02:19:14;;;;;;;;;4.00;2.50;;;;;;;;5059960;28;9657;-80
2024/02/05 02:21:42;;;;;;;;;6.00;3.75;;;;;;;;5063989;28;9524;-80
2024/02/05 02:24:11;;;;;;;;;3.00;1.50;;;;;;;;5058629;28;9549;-81
2024/02/05 02:26:38;;;;;;;;;4.50;3.00;;;;;;;;5063704;28;9691;-81
2024/02/05 02:29:05;;;;;;;;;3.75;3.75;;;;;;;;5064598;28;9541;-80
2024/02/05 02:31:34;;;;;;;;;4.25;4.00;;;;;;;;5068221;28;9426;-80
2024/02/05 02:34:09;;;;;;;;;3.50;3.50;;;;;;;;5068891;28;9522;-80
2024/02/05 02:36:37;;;;;;;;;4.00;3.00;;;;;;;;5069675;28;9618;-79
2024/02/05 02:39:11;;;;;;;;;4.00;3.25;;;;;;;;5064153;28;9475;-79
2024/02/05 02:41:41;;;;;;;;;5.00;3.50;;;;;;;;5068103;28;9592;-79
2024/02/05 02:44:09;;;;;;;;;4.25;2.50;;;;;;;;5043398;28;9631;-80
2024/02/05 02:46:36;;;;;;;;;7.75;4.50;;;;;;;;5059259;28;10329;-80
2024/02/05 02:49:04;;;;;;;;;4.00;3.00;;;;;;;;5068892;28;9535;-80
2024/02/05 02:51:32;;;;;;;;;4.75;3.00;;;;;;;;5068490;28;9737;-80
2024/02/05 02:53:59;;;;;;;;;4.00;4.00;;;;;;;;5064610;28;9600;-79
2024/02/05 02:56:27;;;;;;;;;4.25;3.25;;;;;;;;5063201;28;9623;-80
2024/02/05 02:58:55;;;;;;;;;3.00;3.00;;;;;;;;5068886;28;9622;-79
2024/02/05 03:01:23;;;;;;;;;4.00;4.00;;;;;;;;5066878;28;9513;-79
2024/02/05 03:03:53;;;;;;;;;7.00;3.75;;;;;;;;5065235;28;9663;-80
2024/02/05 03:06:20;;;;;;;;;5.00;3.25;;;;;;;;5070847;28;9689;-78
2024/02/05 03:08:48;;;;;;;;;4.00;2.50;;;;;;;;5070478;28;9549;-79
2024/02/05 03:11:15;;;;;;;;;3.00;2.50;;;;;;;;5071271;28;9543;-81
2024/02/05 03:13:42;;;;;;;;;3.00;3.00;;;;;;;;5064138;28;9588;-79
2024/02/05 03:16:11;;;;;;;;;6.00;4.00;;;;;;;;5066855;28;9641;-79
2024/02/05 03:18:38;;;;;;;;;3.25;1.00;;;;;;;;5058406;28;9537;-79
2024/02/05 03:21:06;;;;;;;;;2.50;2.50;;;;;;;;5061814;28;9749;-79
2024/02/05 03:23:34;;;;;;;;;2.00;2.00;;;;;;;;5067922;28;9615;-79
2024/02/05 03:26:02;;;;;;;;;2.50;2.25;;;;;;;;5067723;28;9726;-80
2024/02/05 03:28:29;;;;;;;;;5.75;2.75;;;;;;;;5061251;28;9590;-80
2024/02/05 03:30:57;;;;;;;;;3.00;2.00;;;;;;;;5066565;28;9554;-80
2024/02/05 03:33:25;;;;;;;;;3.00;1.75;;;;;;;;5068331;28;9615;-80
2024/02/05 03:35:53;;;;;;;;;9.00;2.50;;;;;;;;5067759;28;9466;-79
2024/02/05 03:38:20;;;;;;;;;4.25;2.25;;;;;;;;5069439;28;9628;-81
2024/02/05 03:40:47;;;;;;;;;4.75;2.00;;;;;;;;5076074;28;9589;-76
2024/02/05 03:43:14;;;;;;;;;2.25;2.00;;;;;;;;5086433;28;9553;-79
2024/02/05 03:45:42;;;;;;;;;5.00;3.00;;;;;;;;5059209;28;10316;-78
2024/02/05 03:48:09;;;;;;;;;3.00;3.00;;;;;;;;5050049;28;9539;-78
2024/02/05 03:50:38;;;;;;;;;4.00;2.50;;;;;;;;5052680;28;9456;-79
2024/02/05 03:53:05;;;;;;;;;2.50;2.50;;;;;;;;5067257;28;9633;-80
2024/02/05 03:55:32;;;;;;;;;6.00;3.00;;;;;;;;5066596;28;9493;-79
2024/02/05 03:58:02;;;;;;;;;1.75;1.75;;;;;;;;5067954;28;10430;-79
2024/02/05 04:00:32;;;;;;;;;3.75;2.00;;;;;;;;5066194;28;9539;-79
2024/02/05 04:02:59;;;;;;;;;3.00;3.00;;;;;;;;5060574;28;9742;-79
2024/02/05 04:05:31;;;;;;;;;3.75;2.25;;;;;;;;5062085;28;9755;-80
2024/02/05 04:07:59;;;;;;;;;5.25;4.75;;;;;;;;5069634;28;9664;-80
2024/02/05 04:10:27;;;;;;;;;4.00;2.50;;;;;;;;5068394;28;9698;-80
2024/02/05 04:12:54;;;;;;;;;3.00;1.50;;;;;;;;5069196;28;9576;-80
2024/02/05 04:15:24;;;;;;;;;3.50;1.75;;;;;;;;5067376;28;9464;-79
2024/02/05 04:17:51;;;;;;;;;4.50;4.50;;;;;;;;5067875;28;9531;-80
2024/02/05 04:20:19;;;;;;;;;5.25;3.00;;;;;;;;5056813;28;9572;-80
2024/02/05 04:22:48;;;;;;;;;2.50;2.50;;;;;;;;5064356;28;9520;-80
2024/02/05 04:25:17;;;;;;;;;3.00;1.50;;;;;;;;5067881;28;9483;-80
2024/02/05 04:27:44;;;;;;;;;5.00;3.25;;;;;;;;5064418;28;9562;-80
2024/02/05 04:30:16;;;;;;;;;5.75;3.75;;;;;;;;5067556;28;9904;-79
2024/02/05 04:32:46;;;;;;;;;3.75;3.00;;;;;;;;5068565;28;9689;-80
2024/02/05 04:35:13;;;;;;;;;1.75;1.75;;;;;;;;5070984;28;9553;-80
2024/02/05 04:37:42;;;;;;;;;3.75;3.75;;;;;;;;5069685;28;9547;-80
2024/02/05 04:40:10;;;;;;;;;3.00;3.00;;;;;;;;5069963;28;9606;-80
2024/02/05 04:42:39;;;;;;;;;4.00;3.00;;;;;;;;5070949;28;9464;-80
2024/02/05 04:45:07;;;;;;;;;6.25;3.25;;;;;;;;5072298;28;10469;-79
2024/02/05 04:47:35;;;;;;;;;2.00;2.00;;;;;;;;5071613;28;9789;-80
2024/02/05 04:50:02;;;;;;;;;2.25;1.25;;;;;;;;5066979;28;9618;-81
2024/02/05 04:52:29;;;;;;;;;4.75;2.50;;;;;;;;5073544;28;9548;-80
2024/02/05 04:54:57;;;;;;;;;3.00;3.00;;;;;;;;5069986;28;9581;-80
2024/02/05 04:57:24;;;;;;;;;2.25;2.25;;;;;;;;5071863;28;9600;-78
2024/02/05 04:59:52;;;;;;;;;3.50;2.75;;;;;;;;5070888;28;9541;-77
2024/02/05 05:02:20;;;;;;;;;2.00;2.00;;;;;;;;5069631;28;9413;-80
2024/02/05 05:04:47;;;;;;;;;4.00;2.00;;;;;;;;5073815;28;9378;-80
2024/02/05 05:07:15;;;;;;;;;2.00;2.00;;;;;;;;5073280;28;9550;-79
2024/02/05 05:09:43;;;;;;;;;3.50;3.00;;;;;;;;5069738;28;9612;-79
2024/02/05 05:12:10;;;;;;;;;2.00;2.00;;;;;;;;5070051;28;9493;-80
2024/02/05 05:14:41;;;;;;;;;2.00;2.00;;;;;;;;5067475;28;9641;-80
2024/02/05 05:17:10;;;;;;;;;3.25;2.50;;;;;;;;5068147;28;9396;-78
2024/02/05 05:19:37;;;;;;;;;3.50;3.50;;;;;;;;5068678;28;9557;-79
2024/02/05 05:22:04;;;;;;;;;3.50;3.50;;;;;;;;5069843;28;9541;-80
2024/02/05 05:24:31;;;;;;;;;3.50;3.00;;;;;;;;5069144;28;9389;-77
2024/02/05 05:26:59;;;;;;;;;4.00;3.00;;;;;;;;5069838;28;9549;-80
2024/02/05 05:29:26;;;;;;;;;4.75;3.00;;;;;;;;5068740;28;9554;-80
2024/02/05 05:31:53;;;;;;;;;1.00;1.00;;;;;;;;5068748;28;9421;-80
2024/02/05 05:34:22;;;;;;;;;2.25;2.25;;;;;;;;5061866;28;9412;-79
2024/02/05 05:36:49;;;;;;;;;2.00;2.00;;;;;;;;5067451;28;9545;-81
2024/02/05 05:39:17;;;;;;;;;3.75;3.00;;;;;;;;5069983;28;9508;-80
2024/02/05 05:41:44;;;;;;;;;3.00;2.67;;;;;;;;5064799;28;9572;-80
2024/02/05 05:44:11;;;;;;;;;5.50;3.75;;;;;;;;5068848;28;9561;-81
2024/02/05 05:46:38;;;;;;;;;3.75;3.75;;;;;;;;5064309;28;9764;-80
2024/02/05 05:49:06;;;;;;;;;2.50;2.50;;;;;;;;5069540;28;9593;-80
2024/02/05 05:51:35;;;;;;;;;2.50;2.00;;;;;;;;5069073;28;10391;-78
2024/02/05 05:54:02;;;;;;;;;4.50;3.00;;;;;;;;5067444;28;9560;-80
2024/02/05 05:56:29;;;;;;;;;4.00;4.00;;;;;;;;5067612;28;9633;-79
2024/02/05 05:58:56;;;;;;;;;5.50;2.25;;;;;;;;5066044;28;9608;-79
2024/02/05 06:01:24;;;;;;;;;3.00;0.00;;;;;;;;5068447;28;9639;-80
2024/02/05 06:03:51;;;;;;;;;5.00;2.00;;;;;;;;5068667;28;9425;-80
2024/02/05 06:06:18;;;;;;;;;4.25;4.25;;;;;;;;5066003;28;9468;-80
2024/02/05 06:08:47;;;;;;;;;4.00;4.00;;;;;;;;5067398;28;9570;-80
2024/02/05 06:11:14;;;;;;;;;6.00;3.25;;;;;;;;5069547;28;9773;-80
2024/02/05 06:13:44;;;;;;;;;2.75;2.50;;;;;;;;5070625;28;9648;-78
2024/02/05 06:16:11;;;;;;;;;7.50;4.00;;;;;;;;5074019;28;9675;-76
2024/02/05 06:18:38;;;;;;;;;4.00;3.75;;;;;;;;5071920;28;9648;-76
2024/02/05 06:21:07;;;;;;;;;3.00;3.00;;;;;;;;5062543;28;9951;-78
2024/02/05 06:23:37;;;;;;;;;5.50;3.00;;;;;;;;5068053;28;9691;-77
2024/02/05 06:26:07;;;;;;;;;4.00;2.50;;;;;;;;5068503;28;9707;-80
2024/02/05 06:28:35;;;;;;;;;2.75;2.75;;;;;;;;5068821;28;9814;-79
2024/02/05 06:31:02;;;;;;;;;3.00;3.00;;;;;;;;5067818;28;9658;-79
2024/02/05 06:33:33;;;;;;;;;4.00;4.00;;;;;;;;5069229;28;9726;-79
2024/02/05 06:36:00;;;;;;;;;2.75;2.75;;;;;;;;5069860;28;9661;-77
2024/02/05 06:38:28;;;;;;;;;5.50;4.00;;;;;;;;5070535;28;9731;-82
2024/02/05 06:40:55;;;;;;;;;7.00;5.50;;;;;;;;5068501;28;9737;-77
2024/02/05 06:43:23;;;;;;;;;3.75;3.75;;;;;;;;5070395;28;9755;-79
2024/02/05 06:45:51;;;;;;;;;4.75;4.75;;;;;;;;5066873;28;9730;-78
2024/02/05 06:48:18;;;;;;;;;4.00;4.00;;;;;;;;5065878;28;9757;-77
2024/02/05 06:50:45;;;;;;;;;5.00;3.00;;;;;;;;5069561;28;9789;-80
2024/02/05 06:53:13;;;;;;;;;9.75;5.50;;;;;;;;5052906;28;9859;-76
2024/02/05 06:55:40;;;;;;;;;4.00;4.00;;;;;;;;5067319;28;9956;-77
2024/02/05 06:58:12;;;;;;;;;5.75;5.75;;;;;;;;5066228;28;9845;-77
2024/02/05 07:00:43;;;;;;;;;8.25;4.75;;;;;;;;5067257;28;9708;-80
2024/02/05 07:03:11;;;;;;;;;5.00;4.00;;;;;;;;5066227;28;10736;-77
2024/02/05 07:05:38;;;;;;;;;5.75;5.75;;;;;;;;5067697;28;9946;-76
2024/02/05 07:08:06;;;;;;;;;12.00;4.50;;;;;;;;5066294;28;9856;-75
2024/02/05 07:10:35;;;;;;;;;5.00;3.00;;;;;;;;5066641;28;9924;-79
2024/02/05 07:13:02;;;;;;;;;3.00;3.00;;;;;;;;5067378;28;9791;-79
2024/02/05 07:15:34;;;;;;;;;4.50;4.50;;;;;;;;5066970;28;9894;-81
2024/02/05 07:18:07;;;;;;;;;5.75;5.00;;;;;;;;5068324;28;10014;-81
2024/02/05 07:20:35;;;;;;;;;5.25;5.25;;;;;;;;5068857;28;9786;-80
2024/02/05 07:23:02;;;;;;;;;6.00;5.75;;;;;;;;5059766;28;9901;-78
2024/02/05 07:25:33;;;;;;;;;3.25;3.25;;;;;;;;5069904;28;9970;-81
2024/02/05 07:28:00;;;;;;;;;5.25;4.75;;;;;;;;5067913;28;10545;-78
2024/02/05 07:30:30;;;;;;;;;5.25;2.25;;;;;;;;5066509;28;9722;-76
2024/02/05 07:32:57;;;;;;;;;5.50;4.00;;;;;;;;5067202;28;10029;-77
2024/02/05 07:35:26;;;;;;;;;7.00;6.25;;;;;;;;5062076;28;10126;-78
2024/02/05 07:37:53;;;;;;;;;5.50;4.75;;;;;;;;5060556;28;9938;-75
2024/02/05 07:40:20;;;;;;;;;8.50;4.50;;;;;;;;5066469;28;9953;-76
2024/02/05 07:42:47;;;;;;;;;6.00;3.50;;;;;;;;5067817;28;9987;-76
2024/02/05 07:45:15;;;;;;;;;5.50;3.00;;;;;;;;5068517;28;9853;-78
2024/02/05 07:47:42;;;;;;;;;6.00;4.00;;;;;;;;5068068;28;9874;-77
2024/02/05 07:50:10;;;;;;;;;6.00;5.00;;;;;;;;5066430;28;9851;-78
2024/02/05 07:52:38;;;;;;;;;4.75;4.00;;;;;;;;5067489;28;9932;-78
2024/02/05 07:55:06;;;;;;;;;7.75;7.00;;;;;;;;5054779;28;9864;-76
2024/02/05 07:57:33;;;;;;;;;5.75;5.75;;;;;;;;5066467;28;10086;-78
2024/02/05 08:00:00;;;;;;;;;2.00;2.00;;;;;;;;5064846;28;9763;-78
2024/02/05 08:02:30;;;;;;;;;2.00;2.00;;;;;;;;5066580;28;9713;-79
2024/02/05 08:04:57;;;;;;;;;6.75;5.00;;;;;;;;5066242;28;9852;-76
2024/02/05 08:07:25;;;;;;;;;10.00;4.00;;;;;;;;5068604;28;9972;-76
2024/02/05 08:09:54;;;;;;;;;8.00;5.00;;;;;;;;5071272;28;9880;-76
2024/02/05 08:12:22;;;;;;;;;6.50;5.75;;;;;;;;5071204;28;10021;-77
2024/02/05 08:14:49;;;;;;;;;8.75;6.00;;;;;;;;5070245;28;9941;-77
2024/02/05 08:17:16;;;;;;;;;10.00;4.75;;;;;;;;5071640;28;10168;-76
2024/02/05 08:19:43;;;;;;;;;3.00;3.00;;;;;;;;5071313;28;9820;-76
2024/02/05 08:22:11;;;;;;;;;5.00;5.00;;;;;;;;5069925;28;9784;-77
2024/02/05 08:24:38;;;;;;;;;10.50;6.00;;;;;;;;5068790;28;9867;-78
2024/02/05 08:27:07;;;;;;;;;5.00;5.00;;;;;;;;5069504;28;9983;-76
2024/02/05 08:29:34;;;;;;;;;5.00;5.00;;;;;;;;5073451;28;9939;-77
2024/02/05 08:32:01;;;;;;;;;5.75;4.25;;;;;;;;5071060;28;10786;-78
2024/02/05 08:34:29;;;;;;;;;3.00;2.00;;;;;;;;5067890;28;10081;-78
2024/02/05 08:36:57;;;;;;;;;7.25;4.00;;;;;;;;5071443;28;9866;-77
2024/02/05 08:39:25;;;;;;;;;4.75;4.75;;;;;;;;5073677;28;9878;-77
2024/02/05 08:41:54;;;;;;;;;6.50;4.00;;;;;;;;5071603;28;10766;-79
2024/02/05 08:44:25;;;;;;;;;6.25;3.50;;;;;;;;5072598;28;9964;-75
2024/02/05 08:46:52;;;;;;;;;3.00;2.50;;;;;;;;5066216;28;9992;-77
2024/02/05 08:49:19;;;;;;;;;5.25;4.00;;;;;;;;5069931;28;9949;-77
2024/02/05 08:51:47;;;;;;;;;4.00;4.00;;;;;;;;5069113;28;9696;-75
2024/02/05 08:54:14;;;;;;;;;5.75;4.25;;;;;;;;5063964;28;9794;-77
2024/02/05 08:56:41;;;;;;;;;3.00;3.00;;;;;;;;5068876;28;9835;-77
2024/02/05 08:59:10;;;;;;;;;4.50;4.50;;;;;;;;5069031;28;9844;-77
2024/02/05 09:01:41;;;;;;;;;7.25;3.75;;;;;;;;5066546;28;9746;-77
2024/02/05 09:04:08;;;;;;;;;12.00;5.50;;;;;;;;5069516;28;9936;-77
2024/02/05 09:06:36;;;;;;;;;5.75;5.00;;;;;;;;5069680;28;10628;-77
2024/02/05 09:09:05;;;;;;;;;6.00;4.50;;;;;;;;5069807;28;9920;-77
2024/02/05 09:11:32;;;;;;;;;8.75;4.25;;;;;;;;5067829;28;9854;-76
2024/02/05 09:14:01;;;;;;;;;7.25;4.00;;;;;;;;5068301;28;10698;-77
2024/02/05 09:16:28;;;;;;;;;4.25;4.25;;;;;;;;5065119;28;9778;-77
2024/02/05 09:18:59;;;;;;;;;4.75;4.75;;;;;;;;5066126;28;9987;-76
2024/02/05 09:21:26;;;;;;;;;6.00;4.25;;;;;;;;5065321;28;10015;-76
2024/02/05 09:23:53;;;;;;;;;4.00;4.00;;;;;;;;5067584;28;10532;-75
2024/02/05 09:26:22;;;;;;;;;7.25;5.75;;;;;;;;5068507;28;10127;-77
2024/02/05 09:28:49;;;;;;;;;6.50;5.00;;;;;;;;5067197;28;10098;-76
2024/02/05 09:31:16;;;;;;;;;6.50;5.00;;;;;;;;5063694;28;9915;-76
2024/02/05 09:33:46;;;;;;;;;7.50;5.50;;;;;;;;5068261;28;10035;-77
2024/02/05 09:36:16;;;;;;;;;4.50;3.25;;;;;;;;5067743;28;10109;-75
2024/02/05 09:38:46;;;;;;;;;5.25;4.50;;;;;;;;5061600;28;10030;-77
2024/02/05 09:41:16;;;;;;;;;5.75;5.75;;;;;;;;5070004;28;9892;-77
2024/02/05 09:43:44;;;;;;;;;5.00;3.50;;;;;;;;5063036;28;10055;-75
2024/02/05 09:46:16;;;;;;;;;12.00;5.50;;;;;;;;5069097;28;9952;-76
2024/02/05 09:48:44;;;;;;;;;9.00;6.00;;;;;;;;5067985;28;10718;-78
2024/02/05 09:51:14;;;;;;;;;9.25;5.00;;;;;;;;5069045;28;10075;-77
2024/02/05 09:53:42;;;;;;;;;9.50;6.25;;;;;;;;5057896;28;9945;-76
2024/02/05 09:56:09;;;;;;;;;8.25;6.50;;;;;;;;5060917;28;10014;-76
2024/02/05 09:58:36;;;;;;;;;4.75;4.75;;;;;;;;5068239;28;10024;-77
2024/02/05 10:01:04;;;;;;;;;8.50;6.50;;;;;;;;5068345;28;9783;-76
2024/02/05 10:03:32;;;;;;;;;6.00;4.00;;;;;;;;5068814;28;9832;-75
2024/02/05 10:06:04;;;;;;;;;6.50;5.50;;;;;;;;5068232;28;9925;-76
2024/02/05 10:08:33;;;;;;;;;7.00;6.00;;;;;;;;5068542;28;10557;-78
2024/02/05 10:11:01;;;;;;;;;5.75;5.75;;;;;;;;5067797;28;10693;-78
2024/02/05 10:13:31;;;;;;;;;8.75;6.25;;;;;;;;5069951;28;9842;-75
2024/02/05 10:15:58;;;;;;;;;9.75;7.00;;;;;;;;5069338;28;9983;-79
2024/02/05 10:18:24;;;;;;;;;8.50;7.50;;;;;;;;5070342;28;10074;-78
2024/02/05 10:20:54;;;;;;;;;8.00;7.25;;;;;;;;5069594;28;9852;-79
2024/02/05 10:23:22;;;;;;;;;6.00;6.00;;;;;;;;5070870;28;9896;-78
2024/02/05 10:25:51;;;;;;;;;8.50;7.25;;;;;;;;5060907;28;10072;-78
2024/02/05 10:28:22;;;;;;;;;7.00;7.00;;;;;;;;5068946;28;9751;-77
2024/02/05 10:30:51;;;;;;;;;4.50;4.50;;;;;;;;5068011;28;9749;-79
2024/02/05 10:33:18;;;;;;;;;3.00;3.00;;;;;;;;5066703;28;9847;-76
2024/02/05 10:35:45;;;;;;;;;6.75;5.75;;;;;;;;5067595;28;9791;-79
2024/02/05 10:38:13;;;;;;;;;3.00;3.00;;;;;;;;5068284;28;9862;-78
2024/02/05 10:40:41;;;;;;;;;5.25;5.25;;;;;;;;5069794;28;9860;-77
2024/02/05 10:43:10;;;;;;;;;6.75;6.75;;;;;;;;5071946;28;9964;-77
2024/02/05 10:45:39;;;;;;;;;8.25;5.50;;;;;;;;5069020;28;9875;-78
2024/02/05 10:48:07;;;;;;;;;6.00;5.25;;;;;;;;5072774;28;9800;-76
2024/02/05 10:50:35;;;;;;;;;5.75;5.75;;;;;;;;5072013;28;9754;-77
2024/02/05 10:53:03;;;;;;;;;8.50;5.75;;;;;;;;5072892;28;9922;-75
2024/02/05 10:55:31;;;;;;;;;6.00;4.25;;;;;;;;5066989;28;9935;-75
2024/02/05 10:58:00;;;;;;;;;5.50;5.50;;;;;;;;5066792;28;9979;-74
2024/02/05 11:00:29;;;;;;;;;5.00;5.00;;;;;;;;5073065;28;9713;-77
2024/02/05 11:03:01;;;;;;;;;7.25;7.25;;;;;;;;5068586;28;9962;-74
2024/02/05 11:05:29;;;;;;;;;8.25;7.00;;;;;;;;5069053;28;9859;-74
2024/02/05 11:08:02;;;;;;;;;6.25;4.50;;;;;;;;5067362;28;10069;-75
2024/02/05 11:10:31;;;;;;;;;11.25;9.00;;;;;;;;5060381;28;9938;-75
2024/02/05 11:13:00;;;;;;;;;8.75;5.50;;;;;;;;5069210;28;10123;-74
2024/02/05 11:15:33;;;;;;;;;6.50;6.50;;;;;;;;5066694;28;9881;-77
2024/02/05 11:18:02;;;;;;;;;8.75;4.50;;;;;;;;5064542;28;10023;-76
2024/02/05 11:20:31;;;;;;;;;9.75;7.25;;;;;;;;5069414;28;10001;-76
2024/02/05 11:23:00;;;;;;;;;6.00;6.00;;;;;;;;5069433;28;10014;-78
2024/02/05 11:25:29;;;;;;;;;7.25;7.25;;;;;;;;5067437;28;9992;-77
2024/02/05 11:27:56;;;;;;;;;6.00;6.00;;;;;;;;5059241;28;9897;-76
2024/02/05 11:30:23;;;;;;;;;11.25;7.75;;;;;;;;5058646;28;9874;-78
2024/02/05 11:32:52;;;;;;;;;6.75;6.75;;;;;;;;5067168;28;10045;-75
2024/02/05 11:35:19;;;;;;;;;10.25;8.00;;;;;;;;5066796;28;9930;-77
2024/02/05 11:37:47;;;;;;;;;7.25;7.00;;;;;;;;5067373;28;9937;-79
2024/02/05 11:40:21;;;;;;;;;10.00;8.50;;;;;;;;5067485;28;10068;-78
2024/02/05 11:42:49;;;;;;;;;8.50;6.00;;;;;;;;5068883;28;9918;-75
2024/02/05 11:45:16;;;;;;;;;7.00;7.00;;;;;;;;5068362;28;9936;-77
2024/02/05 11:47:44;;;;;;;;;11.50;9.75;;;;;;;;5070476;28;9863;-76
2024/02/05 11:50:12;;;;;;;;;5.00;4.75;;;;;;;;5071233;28;9931;-78
2024/02/05 11:52:43;;;;;;;;;9.00;7.00;;;;;;;;5071155;28;10731;-78
2024/02/05 11:55:10;;;;;;;;;8.75;7.00;;;;;;;;5056179;28;9912;-77
2024/02/05 11:57:38;;;;;;;;;10.00;9.00;;;;;;;;5070425;28;10836;-75
2024/02/05 12:00:10;;;;;;;;;8.25;6.25;;;;;;;;5071549;28;9928;-73
2024/02/05 12:02:38;;;;;;;;;4.75;4.75;;;;;;;;5072506;28;9977;-77
2024/02/05 12:05:08;;;;;;;;;5.00;5.00;;;;;;;;5072742;28;9855;-75
2024/02/05 12:07:37;;;;;;;;;7.25;7.25;;;;;;;;5072989;28;9953;-78
2024/02/05 12:10:06;;;;;;;;;8.00;5.50;;;;;;;;5072569;28;9849;-79
2024/02/05 12:12:33;;;;;;;;;10.00;10.00;;;;;;;;5071303;28;10065;-80
2024/02/05 12:15:00;;;;;;;;;9.00;8.25;;;;;;;;5072065;28;9943;-77
2024/02/05 12:17:28;;;;;;;;;9.25;9.25;;;;;;;;5071943;28;9855;-79
2024/02/05 12:19:59;;;;;;;;;8.25;6.00;;;;;;;;5067119;28;9933;-80
2024/02/05 12:22:28;;;;;;;;;7.00;7.00;;;;;;;;5070888;28;9959;-80
2024/02/05 12:24:58;;;;;;;;;10.75;7.50;;;;;;;;5070216;28;9851;-79
2024/02/05 12:27:26;;;;;;;;;6.00;5.50;;;;;;;;5067819;28;10611;-80
2024/02/05 12:30:05;;;;;;;;;13.25;9.25;;;;;;;;5063880;28;9848;-80
2024/02/05 12:32:35;;;;;;;;;9.75;9.25;;;;;;;;5065800;28;9994;-78
2024/02/05 12:35:02;;;;;;;;;17.50;14.00;;;;;;;;5062551;28;10052;-79
2024/02/05 12:37:30;;;;;;;;;14.75;11.00;;;;;;;;5070394;28;10949;-81
2024/02/05 12:39:59;;;;;;;;;10.00;10.00;;;;;;;;5070439;28;10047;-75
2024/02/05 12:42:27;;;;;;;;;9.50;7.50;;;;;;;;5063201;28;10069;-76
2024/02/05 12:44:55;;;;;;;;;14.75;10.75;;;;;;;;5069827;28;10079;-77
2024/02/05 12:47:22;;;;;;;;;9.00;6.75;;;;;;;;5069575;28;10103;-79
2024/02/05 12:49:50;;;;;;;;;8.25;7.25;;;;;;;;5070391;28;10018;-78
2024/02/05 12:52:17;;;;;;;;;10.00;10.00;;;;;;;;5071541;28;10072;-78
2024/02/05 12:54:48;;;;;;;;;11.25;10.75;;;;;;;;5058421;28;10301;-77
2024/02/05 12:57:17;;;;;;;;;10.75;6.00;;;;;;;;5071246;28;10223;-80
2024/02/05 12:59:45;;;;;;;;;3.50;2.00;;;;;;;;5069626;28;10161;-78
2024/02/05 13:02:16;;;;;;;;;16.50;15.00;;;;;;;;5069547;28;10111;-75
2024/02/05 13:04:44;;;;;;;;;13.00;11.00;;;;;;;;5069767;28;10189;-78
2024/02/05 13:07:11;;;;;;;;;10.50;10.00;;;;;;;;5069762;28;10153;-76
2024/02/05 13:09:39;;;;;;;;;18.50;13.25;;;;;;;;5053939;28;10128;-76
2024/02/05 13:12:07;;;;;;;;;15.75;12.25;;;;;;;;5061268;28;10024;-79
2024/02/05 13:14:36;;;;;;;;;14.25;12.50;;;;;;;;5069609;28;10027;-78
2024/02/05 13:17:04;;;;;;;;;13.75;12.00;;;;;;;;5069550;28;10874;-79
2024/02/05 13:19:34;;;;;;;;;11.00;10.50;;;;;;;;5069923;28;10244;-76
2024/02/05 13:22:04;;;;;;;;;10.75;8.50;;;;;;;;5069715;28;9947;-77
2024/02/05 13:24:35;;;;;;;;;13.50;10.75;;;;;;;;5069932;28;10076;-77
2024/02/05 13:27:02;;;;;;;;;15.00;13.25;;;;;;;;5058609;28;10033;-74
2024/02/05 13:29:30;;;;;;;;;16.75;9.50;;;;;;;;5050766;28;10091;-78
2024/02/05 13:31:59;;;;;;;;;16.25;15.00;;;;;;;;5063501;28;10771;-75
2024/02/05 13:34:29;;;;;;;;;15.25;11.50;;;;;;;;5068414;28;10199;-77
2024/02/05 13:36:56;;;;;;;;;13.50;11.75;;;;;;;;5069854;28;10840;-76
2024/02/05 13:39:25;;;;;;;;;24.00;16.00;;;;;;;;5061609;28;10037;-76
2024/02/05 13:41:52;;;;;;;;;17.25;14.50;;;;;;;;5051230;28;10293;-77
2024/02/05 13:44:20;;;;;;;;;19.75;14.25;;;;;;;;5060240;28;10271;-76
2024/02/05 13:46:47;;;;;;;;;14.00;11.00;;;;;;;;5058413;28;10760;-75
2024/02/05 13:49:16;;;;;;;;;12.25;12.25;;;;;;;;5061813;28;10068;-76
2024/02/05 13:51:43;;;;;;;;;19.00;16.00;;;;;;;;5066500;28;10028;-77
2024/02/05 13:54:10;;;;;;;;;15.25;13.25;;;;;;;;5062555;28;10117;-77
2024/02/05 13:56:36;;;;;;;;;17.50;11.00;;;;;;;;5063896;28;10306;-78
2024/02/05 13:59:04;;;;;;;;;16.25;13.50;;;;;;;;5069333;28;10231;-76
2024/02/05 14:01:34;;;;;;;;;16.00;11.50;;;;;;;;5070301;28;10173;-77
2024/02/05 14:04:03;;;;;;;;;13.75;13.75;;;;;;;;5061564;28;10637;-76
2024/02/05 14:06:32;;;;;;;;;10.50;10.50;;;;;;;;5070056;28;10106;-76
2024/02/05 14:08:59;;;;;;;;;20.75;15.75;;;;;;;;5070214;28;10233;-77
2024/02/05 14:11:26;;;;;;;;;16.00;15.00;;;;;;;;5068658;28;10895;-77
2024/02/05 14:13:54;;;;;;;;;19.25;14.75;;;;;;;;5069901;28;10174;-76
2024/02/05 14:16:21;;;;;;;;;15.75;13.25;;;;;;;;5069733;28;10279;-77
2024/02/05 14:18:48;;;;;;;;;14.50;14.50;;;;;;;;5069539;28;10236;-77
2024/02/05 14:21:15;;;;;;;;;15.75;15.75;;;;;;;;5068045;28;10324;-77
2024/02/05 14:23:44;;;;;;;;;18.25;14.50;;;;;;;;5068360;28;10343;-77
2024/02/05 14:26:11;;;;;;;;;21.00;16.50;;;;;;;;5067904;28;11090;-76
2024/02/05 14:28:39;;;;;;;;;14.25;14.25;;;;;;;;5068444;28;11223;-75
2024/02/05 14:31:06;;;;;;;;;18.00;16.50;;;;;;;;5067583;28;10190;-76
2024/02/05 14:33:34;;;;;;;;;17.50;15.25;;;;;;;;5067941;28;10515;-77
2024/02/05 14:36:01;;;;;;;;;15.25;13.00;;;;;;;;5067480;28;10711;-76
2024/02/05 14:38:31;;;;;;;;;16.75;14.75;;;;;;;;5068453;28;10318;-76
2024/02/05 14:40:59;;;;;;;;;16.00;10.75;;;;;;;;5068827;28;10291;-76
2024/02/05 14:43:31;;;;;;;;;14.75;13.50;;;;;;;;5068936;28;10381;-76
2024/02/05 14:45:59;;;;;;;;;17.75;15.00;;;;;;;;5067621;28;10283;-74
2024/02/05 14:48:27;;;;;;;;;18.00;14.75;;;;;;;;5066315;28;10335;-76
2024/02/05 14:50:54;;;;;;;;;12.75;9.00;;;;;;;;5067817;28;10376;-76
2024/02/05 14:53:23;;;;;;;;;17.75;14.00;;;;;;;;5065208;28;10213;-76